sensor_id;sensor_type;location;lat;lon;timestamp;P1;durP1;ratioP1;P2;durP2;ratioP2
7795;SDS011;3942;51.518;6.912;2023-02-03T00:01:51;29.50;;;18.95;;
7795;SDS011;3942;51.518;6.912;2023-02-03T00:06:53;34.85;;;18.83;;
7795;SDS011;3942;51.518;6.912;2023-02-03T00:11:56;44.65;;;19.45;;
7795;SDS011;3942;51.518;6.912;2023-02-03T00:16:58;29.63;;;18.60;;
7795;SDS011;3942;51.518;6.912;2023-02-03T00:22:01;35.90;;;19.95;;
7795;SDS011;3942;51.518;6.912;2023-02-03T00:27:04;32.35;;;20.08;;
7795;SDS011;3942;51.518;6.912;2023-02-03T00:32:06;25.17;;;17.45;;
7795;SDS011;3942;51.518;6.912;2023-02-03T00:37:10;30.83;;;16.20;;
7795;SDS011;3942;51.518;6.912;2023-02-03T00:42:14;30.95;;;17.75;;
7795;SDS011;3942;51.518;6.912;2023-02-03T00:47:16;31.20;;;16.52;;
7795;SDS011;3942;51.518;6.912;2023-02-03T00:52:18;35.22;;;16.77;;
7795;SDS011;3942;51.518;6.912;2023-02-03T00:57:21;31.30;;;18.50;;
7795;SDS011;3942;51.518;6.912;2023-02-03T01:02:23;29.48;;;16.27;;
7795;SDS011;3942;51.518;6.912;2023-02-03T01:07:25;30.25;;;17.25;;
7795;SDS011;3942;51.518;6.912;2023-02-03T01:12:29;39.13;;;17.65;;
7795;SDS011;3942;51.518;6.912;2023-02-03T01:17:32;29.98;;;18.27;;
7795;SDS011;3942;51.518;6.912;2023-02-03T01:22:34;34.17;;;18.95;;
7795;SDS011;3942;51.518;6.912;2023-02-03T01:27:37;37.28;;;18.63;;
7795;SDS011;3942;51.518;6.912;2023-02-03T01:32:39;31.95;;;18.38;;
7795;SDS011;3942;51.518;6.912;2023-02-03T01:37:41;32.95;;;18.83;;
7795;SDS011;3942;51.518;6.912;2023-02-03T01:42:45;32.20;;;17.05;;
7795;SDS011;3942;51.518;6.912;2023-02-03T01:47:47;30.00;;;17.15;;
7795;SDS011;3942;51.518;6.912;2023-02-03T01:52:55;33.70;;;18.23;;
7795;SDS011;3942;51.518;6.912;2023-02-03T01:58:00;28.80;;;16.45;;
7795;SDS011;3942;51.518;6.912;2023-02-03T02:03:03;33.25;;;17.13;;
7795;SDS011;3942;51.518;6.912;2023-02-03T02:08:06;29.83;;;15.55;;
7795;SDS011;3942;51.518;6.912;2023-02-03T02:13:11;31.70;;;15.10;;
7795;SDS011;3942;51.518;6.912;2023-02-03T02:18:18;28.27;;;15.70;;
7795;SDS011;3942;51.518;6.912;2023-02-03T02:23:34;34.20;;;16.50;;
7795;SDS011;3942;51.518;6.912;2023-02-03T02:28:53;27.17;;;15.48;;
7795;SDS011;3942;51.518;6.912;2023-02-03T02:34:16;27.00;;;15.10;;
7795;SDS011;3942;51.518;6.912;2023-02-03T02:39:29;26.58;;;14.25;;
7795;SDS011;3942;51.518;6.912;2023-02-03T02:44:34;31.95;;;15.15;;
7795;SDS011;3942;51.518;6.912;2023-02-03T02:49:43;20.83;;;11.95;;
7795;SDS011;3942;51.518;6.912;2023-02-03T02:54:51;22.00;;;12.65;;
7795;SDS011;3942;51.518;6.912;2023-02-03T02:59:56;28.00;;;13.05;;
7795;SDS011;3942;51.518;6.912;2023-02-03T03:05:00;22.52;;;11.40;;
7795;SDS011;3942;51.518;6.912;2023-02-03T03:10:04;19.33;;;10.68;;
7795;SDS011;3942;51.518;6.912;2023-02-03T03:15:10;25.23;;;10.40;;
7795;SDS011;3942;51.518;6.912;2023-02-03T03:20:15;19.90;;;9.82;;
7795;SDS011;3942;51.518;6.912;2023-02-03T03:25:23;17.98;;;8.85;;
7795;SDS011;3942;51.518;6.912;2023-02-03T03:30:27;17.60;;;8.98;;
7795;SDS011;3942;51.518;6.912;2023-02-03T03:35:35;36.47;;;18.77;;
7795;SDS011;3942;51.518;6.912;2023-02-03T03:40:39;15.23;;;7.72;;
7795;SDS011;3942;51.518;6.912;2023-02-03T03:45:43;18.65;;;7.85;;
7795;SDS011;3942;51.518;6.912;2023-02-03T03:50:50;18.60;;;7.85;;
7795;SDS011;3942;51.518;6.912;2023-02-03T03:55:54;13.82;;;6.72;;
7795;SDS011;3942;51.518;6.912;2023-02-03T04:01:00;18.08;;;6.38;;
7795;SDS011;3942;51.518;6.912;2023-02-03T04:06:04;17.60;;;5.90;;
7795;SDS011;3942;51.518;6.912;2023-02-03T04:11:07;17.85;;;6.72;;
7795;SDS011;3942;51.518;6.912;2023-02-03T04:16:09;12.23;;;6.65;;
7795;SDS011;3942;51.518;6.912;2023-02-03T04:21:12;18.85;;;6.55;;
7795;SDS011;3942;51.518;6.912;2023-02-03T04:26:14;17.98;;;7.05;;
7795;SDS011;3942;51.518;6.912;2023-02-03T04:31:17;14.90;;;7.72;;
7795;SDS011;3942;51.518;6.912;2023-02-03T04:36:20;13.65;;;6.22;;
7795;SDS011;3942;51.518;6.912;2023-02-03T04:41:22;11.63;;;6.10;;
7795;SDS011;3942;51.518;6.912;2023-02-03T04:46:24;17.40;;;5.97;;
7795;SDS011;3942;51.518;6.912;2023-02-03T04:51:28;17.50;;;6.28;;
7795;SDS011;3942;51.518;6.912;2023-02-03T04:56:30;11.60;;;6.10;;
7795;SDS011;3942;51.518;6.912;2023-02-03T05:01:31;13.23;;;6.32;;
7795;SDS011;3942;51.518;6.912;2023-02-03T05:06:37;15.68;;;5.32;;
7795;SDS011;3942;51.518;6.912;2023-02-03T05:11:39;16.23;;;5.68;;
7795;SDS011;3942;51.518;6.912;2023-02-03T05:16:41;15.95;;;5.18;;
7795;SDS011;3942;51.518;6.912;2023-02-03T05:21:44;10.68;;;5.28;;
7795;SDS011;3942;51.518;6.912;2023-02-03T05:26:47;11.43;;;5.00;;
7795;SDS011;3942;51.518;6.912;2023-02-03T05:31:49;11.80;;;5.15;;
7795;SDS011;3942;51.518;6.912;2023-02-03T05:36:52;10.50;;;4.38;;
7795;SDS011;3942;51.518;6.912;2023-02-03T05:41:54;8.55;;;4.32;;
7795;SDS011;3942;51.518;6.912;2023-02-03T05:46:57;11.23;;;4.75;;
7795;SDS011;3942;51.518;6.912;2023-02-03T05:52:02;8.98;;;4.43;;
7795;SDS011;3942;51.518;6.912;2023-02-03T05:57:04;8.98;;;4.25;;
7795;SDS011;3942;51.518;6.912;2023-02-03T06:02:05;14.48;;;4.15;;
7795;SDS011;3942;51.518;6.912;2023-02-03T06:07:09;13.27;;;6.40;;
7795;SDS011;3942;51.518;6.912;2023-02-03T06:12:11;10.70;;;3.75;;
7795;SDS011;3942;51.518;6.912;2023-02-03T06:17:13;11.88;;;3.97;;
7795;SDS011;3942;51.518;6.912;2023-02-03T06:22:17;11.43;;;5.05;;
7795;SDS011;3942;51.518;6.912;2023-02-03T06:27:19;9.57;;;4.05;;
7795;SDS011;3942;51.518;6.912;2023-02-03T06:32:21;11.65;;;4.43;;
7795;SDS011;3942;51.518;6.912;2023-02-03T06:37:24;14.25;;;5.18;;
7795;SDS011;3942;51.518;6.912;2023-02-03T06:42:26;16.88;;;5.60;;
7795;SDS011;3942;51.518;6.912;2023-02-03T06:47:28;14.88;;;5.10;;
7795;SDS011;3942;51.518;6.912;2023-02-03T06:52:31;17.40;;;5.03;;
7795;SDS011;3942;51.518;6.912;2023-02-03T06:57:33;19.05;;;5.68;;
7795;SDS011;3942;51.518;6.912;2023-02-03T07:02:35;15.63;;;5.32;;
7795;SDS011;3942;51.518;6.912;2023-02-03T07:07:38;16.55;;;5.38;;
7795;SDS011;3942;51.518;6.912;2023-02-03T07:12:40;9.13;;;4.75;;
7795;SDS011;3942;51.518;6.912;2023-02-03T07:17:43;76.18;;;37.05;;
7795;SDS011;3942;51.518;6.912;2023-02-03T07:22:55;35.05;;;19.23;;
7795;SDS011;3942;51.518;6.912;2023-02-03T07:27:57;29.40;;;12.95;;
7795;SDS011;3942;51.518;6.912;2023-02-03T07:32:59;12.07;;;4.35;;
7795;SDS011;3942;51.518;6.912;2023-02-03T07:38:02;17.70;;;5.85;;
7795;SDS011;3942;51.518;6.912;2023-02-03T07:43:04;20.95;;;6.03;;
7795;SDS011;3942;51.518;6.912;2023-02-03T07:48:07;17.20;;;5.22;;
7795;SDS011;3942;51.518;6.912;2023-02-03T07:53:10;13.20;;;5.25;;
7795;SDS011;3942;51.518;6.912;2023-02-03T07:58:12;17.02;;;6.07;;
7795;SDS011;3942;51.518;6.912;2023-02-03T08:03:14;17.70;;;7.10;;
7795;SDS011;3942;51.518;6.912;2023-02-03T08:08:17;17.23;;;6.45;;
7795;SDS011;3942;51.518;6.912;2023-02-03T08:13:19;13.82;;;5.50;;
7795;SDS011;3942;51.518;6.912;2023-02-03T08:18:21;12.57;;;5.10;;
7795;SDS011;3942;51.518;6.912;2023-02-03T08:23:25;21.77;;;8.10;;
7795;SDS011;3942;51.518;6.912;2023-02-03T08:28:27;12.07;;;4.20;;
7795;SDS011;3942;51.518;6.912;2023-02-03T08:33:29;16.27;;;5.25;;
7795;SDS011;3942;51.518;6.912;2023-02-03T08:38:32;17.45;;;6.22;;
7795;SDS011;3942;51.518;6.912;2023-02-03T08:43:34;20.35;;;9.32;;
7795;SDS011;3942;51.518;6.912;2023-02-03T08:48:36;16.80;;;6.78;;
7795;SDS011;3942;51.518;6.912;2023-02-03T08:53:40;20.55;;;5.50;;
7795;SDS011;3942;51.518;6.912;2023-02-03T08:58:42;13.30;;;5.07;;
7795;SDS011;3942;51.518;6.912;2023-02-03T09:03:44;11.93;;;5.13;;
7795;SDS011;3942;51.518;6.912;2023-02-03T09:08:47;14.02;;;6.05;;
7795;SDS011;3942;51.518;6.912;2023-02-03T09:13:49;15.60;;;6.22;;
7795;SDS011;3942;51.518;6.912;2023-02-03T09:18:51;11.55;;;4.45;;
7795;SDS011;3942;51.518;6.912;2023-02-03T09:23:55;14.18;;;5.40;;
7795;SDS011;3942;51.518;6.912;2023-02-03T09:29:00;9.43;;;3.88;;
7795;SDS011;3942;51.518;6.912;2023-02-03T09:34:02;13.02;;;4.60;;
7795;SDS011;3942;51.518;6.912;2023-02-03T09:39:05;17.77;;;5.40;;
7795;SDS011;3942;51.518;6.912;2023-02-03T09:44:09;12.95;;;6.15;;
7795;SDS011;3942;51.518;6.912;2023-02-03T09:49:13;16.33;;;7.00;;
7795;SDS011;3942;51.518;6.912;2023-02-03T09:54:25;14.48;;;5.65;;
7795;SDS011;3942;51.518;6.912;2023-02-03T09:59:31;13.48;;;6.90;;
7795;SDS011;3942;51.518;6.912;2023-02-03T10:04:36;15.18;;;6.13;;
7795;SDS011;3942;51.518;6.912;2023-02-03T10:09:44;19.73;;;7.63;;
7795;SDS011;3942;51.518;6.912;2023-02-03T10:14:55;13.70;;;5.22;;
7795;SDS011;3942;51.518;6.912;2023-02-03T10:20:04;11.25;;;4.35;;
7795;SDS011;3942;51.518;6.912;2023-02-03T10:25:13;17.42;;;5.50;;
7795;SDS011;3942;51.518;6.912;2023-02-03T10:30:20;13.75;;;5.95;;
7795;SDS011;3942;51.518;6.912;2023-02-03T10:35:25;18.00;;;6.32;;
7795;SDS011;3942;51.518;6.912;2023-02-03T10:40:30;15.38;;;5.15;;
7795;SDS011;3942;51.518;6.912;2023-02-03T10:45:34;15.23;;;5.35;;
7795;SDS011;3942;51.518;6.912;2023-02-03T10:50:39;14.27;;;5.82;;
7795;SDS011;3942;51.518;6.912;2023-02-03T10:55:46;15.13;;;6.57;;
7795;SDS011;3942;51.518;6.912;2023-02-03T11:00:49;14.40;;;5.40;;
7795;SDS011;3942;51.518;6.912;2023-02-03T11:06:06;11.25;;;5.45;;
7795;SDS011;3942;51.518;6.912;2023-02-03T11:11:12;13.88;;;5.70;;
7795;SDS011;3942;51.518;6.912;2023-02-03T11:16:15;21.15;;;7.20;;
7795;SDS011;3942;51.518;6.912;2023-02-03T11:21:19;14.55;;;5.28;;
7795;SDS011;3942;51.518;6.912;2023-02-03T11:26:24;20.38;;;7.35;;
7795;SDS011;3942;51.518;6.912;2023-02-03T11:31:30;22.77;;;8.05;;
7795;SDS011;3942;51.518;6.912;2023-02-03T11:36:33;17.63;;;6.85;;
7795;SDS011;3942;51.518;6.912;2023-02-03T11:41:37;14.07;;;6.85;;
7795;SDS011;3942;51.518;6.912;2023-02-03T11:46:40;28.13;;;10.70;;
7795;SDS011;3942;51.518;6.912;2023-02-03T11:51:43;24.23;;;10.10;;
7795;SDS011;3942;51.518;6.912;2023-02-03T11:56:56;18.88;;;7.22;;
7795;SDS011;3942;51.518;6.912;2023-02-03T12:02:22;17.05;;;7.00;;
7795;SDS011;3942;51.518;6.912;2023-02-03T12:07:38;22.98;;;8.00;;
7795;SDS011;3942;51.518;6.912;2023-02-03T12:12:49;29.38;;;11.07;;
7795;SDS011;3942;51.518;6.912;2023-02-03T12:18:04;20.58;;;7.40;;
7795;SDS011;3942;51.518;6.912;2023-02-03T12:23:12;25.50;;;9.18;;
7795;SDS011;3942;51.518;6.912;2023-02-03T12:28:24;21.35;;;7.05;;
7795;SDS011;3942;51.518;6.912;2023-02-03T12:33:39;16.40;;;5.50;;
7795;SDS011;3942;51.518;6.912;2023-02-03T12:38:44;13.38;;;5.28;;
7795;SDS011;3942;51.518;6.912;2023-02-03T12:43:49;17.42;;;5.97;;
7795;SDS011;3942;51.518;6.912;2023-02-03T12:48:55;20.02;;;8.13;;
7795;SDS011;3942;51.518;6.912;2023-02-03T12:54:00;15.88;;;5.65;;
7795;SDS011;3942;51.518;6.912;2023-02-03T12:59:08;15.00;;;5.95;;
7795;SDS011;3942;51.518;6.912;2023-02-03T13:04:17;16.00;;;6.05;;
7795;SDS011;3942;51.518;6.912;2023-02-03T13:09:24;24.92;;;10.10;;
7795;SDS011;3942;51.518;6.912;2023-02-03T13:14:32;28.77;;;9.75;;
7795;SDS011;3942;51.518;6.912;2023-02-03T13:19:37;20.42;;;6.68;;
7795;SDS011;3942;51.518;6.912;2023-02-03T13:24:44;13.50;;;5.53;;
7795;SDS011;3942;51.518;6.912;2023-02-03T13:29:56;14.68;;;5.25;;
7795;SDS011;3942;51.518;6.912;2023-02-03T13:35:16;19.33;;;6.57;;
7795;SDS011;3942;51.518;6.912;2023-02-03T13:40:31;14.38;;;5.72;;
7795;SDS011;3942;51.518;6.912;2023-02-03T13:45:42;11.40;;;4.57;;
7795;SDS011;3942;51.518;6.912;2023-02-03T13:50:46;13.20;;;4.97;;
7795;SDS011;3942;51.518;6.912;2023-02-03T13:55:51;14.98;;;5.50;;
7795;SDS011;3942;51.518;6.912;2023-02-03T14:01:00;10.70;;;4.65;;
7795;SDS011;3942;51.518;6.912;2023-02-03T14:06:03;10.45;;;4.85;;
7795;SDS011;3942;51.518;6.912;2023-02-03T14:16:30;9.40;;;4.35;;
7795;SDS011;3942;51.518;6.912;2023-02-03T14:21:36;16.00;;;4.00;;
7795;SDS011;3942;51.518;6.912;2023-02-03T14:26:41;15.93;;;5.18;;
7795;SDS011;3942;51.518;6.912;2023-02-03T14:31:55;15.10;;;3.92;;
7795;SDS011;3942;51.518;6.912;2023-02-03T14:37:07;17.00;;;4.22;;
7795;SDS011;3942;51.518;6.912;2023-02-03T14:42:23;24.58;;;4.22;;
7795;SDS011;3942;51.518;6.912;2023-02-03T14:47:45;12.27;;;3.58;;
7795;SDS011;3942;51.518;6.912;2023-02-03T14:52:56;16.33;;;3.90;;
7795;SDS011;3942;51.518;6.912;2023-02-03T14:58:01;15.80;;;4.03;;
7795;SDS011;3942;51.518;6.912;2023-02-03T15:08:33;22.80;;;6.15;;
7795;SDS011;3942;51.518;6.912;2023-02-03T15:13:36;25.58;;;4.82;;
7795;SDS011;3942;51.518;6.912;2023-02-03T15:18:38;22.55;;;4.88;;
7795;SDS011;3942;51.518;6.912;2023-02-03T15:23:42;24.38;;;5.28;;
7795;SDS011;3942;51.518;6.912;2023-02-03T15:28:52;25.13;;;4.78;;
7795;SDS011;3942;51.518;6.912;2023-02-03T15:33:55;24.37;;;4.97;;
7795;SDS011;3942;51.518;6.912;2023-02-03T15:39:01;19.65;;;4.80;;
7795;SDS011;3942;51.518;6.912;2023-02-03T15:44:06;17.92;;;4.85;;
7795;SDS011;3942;51.518;6.912;2023-02-03T15:49:11;21.50;;;5.28;;
7795;SDS011;3942;51.518;6.912;2023-02-03T15:54:17;18.83;;;4.57;;
7795;SDS011;3942;51.518;6.912;2023-02-03T15:59:22;24.75;;;5.57;;
7795;SDS011;3942;51.518;6.912;2023-02-03T16:04:25;24.15;;;7.18;;
7795;SDS011;3942;51.518;6.912;2023-02-03T16:09:30;37.60;;;7.25;;
7795;SDS011;3942;51.518;6.912;2023-02-03T16:14:34;28.67;;;5.95;;
7795;SDS011;3942;51.518;6.912;2023-02-03T16:19:37;25.52;;;6.10;;
7795;SDS011;3942;51.518;6.912;2023-02-03T16:24:41;30.75;;;7.70;;
7795;SDS011;3942;51.518;6.912;2023-02-03T16:29:45;30.40;;;9.15;;
7795;SDS011;3942;51.518;6.912;2023-02-03T16:35:06;18.70;;;5.80;;
7795;SDS011;3942;51.518;6.912;2023-02-03T16:40:29;26.98;;;6.60;;
7795;SDS011;3942;51.518;6.912;2023-02-03T16:45:55;22.35;;;5.47;;
7795;SDS011;3942;51.518;6.912;2023-02-03T16:51:17;24.83;;;5.85;;
7795;SDS011;3942;51.518;6.912;2023-02-03T16:56:21;22.42;;;5.93;;
7795;SDS011;3942;51.518;6.912;2023-02-03T17:01:23;22.67;;;7.18;;
7795;SDS011;3942;51.518;6.912;2023-02-03T17:06:25;29.58;;;8.20;;
7795;SDS011;3942;51.518;6.912;2023-02-03T17:11:28;21.83;;;6.40;;
7795;SDS011;3942;51.518;6.912;2023-02-03T17:16:33;25.00;;;7.93;;
7795;SDS011;3942;51.518;6.912;2023-02-03T17:21:35;25.48;;;6.88;;
7795;SDS011;3942;51.518;6.912;2023-02-03T17:26:38;26.95;;;6.70;;
7795;SDS011;3942;51.518;6.912;2023-02-03T17:31:40;24.02;;;7.65;;
7795;SDS011;3942;51.518;6.912;2023-02-03T17:36:42;26.40;;;8.23;;
7795;SDS011;3942;51.518;6.912;2023-02-03T17:41:46;25.50;;;7.78;;
7795;SDS011;3942;51.518;6.912;2023-02-03T17:46:48;31.50;;;7.53;;
7795;SDS011;3942;51.518;6.912;2023-02-03T17:51:49;22.85;;;6.80;;
7795;SDS011;3942;51.518;6.912;2023-02-03T17:56:53;24.30;;;7.53;;
7795;SDS011;3942;51.518;6.912;2023-02-03T18:01:55;30.38;;;9.07;;
7795;SDS011;3942;51.518;6.912;2023-02-03T18:06:57;35.05;;;7.68;;
7795;SDS011;3942;51.518;6.912;2023-02-03T18:12:00;30.88;;;7.95;;
7795;SDS011;3942;51.518;6.912;2023-02-03T18:17:03;26.92;;;7.38;;
7795;SDS011;3942;51.518;6.912;2023-02-03T18:22:05;26.40;;;7.10;;
7795;SDS011;3942;51.518;6.912;2023-02-03T18:27:11;30.33;;;8.30;;
7795;SDS011;3942;51.518;6.912;2023-02-03T18:32:16;20.35;;;5.45;;
7795;SDS011;3942;51.518;6.912;2023-02-03T18:37:19;22.65;;;5.90;;
7795;SDS011;3942;51.518;6.912;2023-02-03T18:42:22;25.48;;;6.28;;
7795;SDS011;3942;51.518;6.912;2023-02-03T18:47:24;20.90;;;5.50;;
7795;SDS011;3942;51.518;6.912;2023-02-03T18:52:26;26.45;;;7.28;;
7795;SDS011;3942;51.518;6.912;2023-02-03T18:57:30;27.35;;;5.75;;
7795;SDS011;3942;51.518;6.912;2023-02-03T19:02:32;27.75;;;9.80;;
7795;SDS011;3942;51.518;6.912;2023-02-03T19:07:34;23.25;;;6.13;;
7795;SDS011;3942;51.518;6.912;2023-02-03T19:12:38;23.10;;;4.25;;
7795;SDS011;3942;51.518;6.912;2023-02-03T19:17:40;25.38;;;6.28;;
7795;SDS011;3942;51.518;6.912;2023-02-03T19:22:41;26.30;;;10.38;;
7795;SDS011;3942;51.518;6.912;2023-02-03T19:27:45;20.25;;;5.10;;
7795;SDS011;3942;51.518;6.912;2023-02-03T19:32:47;33.80;;;5.47;;
7795;SDS011;3942;51.518;6.912;2023-02-03T19:37:49;29.92;;;5.35;;
7795;SDS011;3942;51.518;6.912;2023-02-03T19:42:54;22.27;;;5.35;;
7795;SDS011;3942;51.518;6.912;2023-02-03T19:47:55;25.50;;;6.00;;
7795;SDS011;3942;51.518;6.912;2023-02-03T19:52:58;27.40;;;7.95;;
7795;SDS011;3942;51.518;6.912;2023-02-03T19:58:01;25.63;;;6.53;;
7795;SDS011;3942;51.518;6.912;2023-02-03T20:03:03;31.98;;;6.47;;
7795;SDS011;3942;51.518;6.912;2023-02-03T20:08:05;57.50;;;24.23;;
7795;SDS011;3942;51.518;6.912;2023-02-03T20:13:13;23.38;;;5.93;;
7795;SDS011;3942;51.518;6.912;2023-02-03T20:18:15;30.92;;;7.55;;
7795;SDS011;3942;51.518;6.912;2023-02-03T20:23:17;29.30;;;5.65;;
7795;SDS011;3942;51.518;6.912;2023-02-03T20:28:22;28.63;;;4.55;;
7795;SDS011;3942;51.518;6.912;2023-02-03T20:33:25;27.00;;;5.63;;
7795;SDS011;3942;51.518;6.912;2023-02-03T20:38:27;25.90;;;5.53;;
7795;SDS011;3942;51.518;6.912;2023-02-03T20:43:31;27.10;;;6.63;;
7795;SDS011;3942;51.518;6.912;2023-02-03T20:48:33;29.17;;;6.45;;
7795;SDS011;3942;51.518;6.912;2023-02-03T20:53:35;26.42;;;4.95;;
7795;SDS011;3942;51.518;6.912;2023-02-03T20:58:38;20.20;;;5.25;;
7795;SDS011;3942;51.518;6.912;2023-02-03T21:03:41;19.10;;;5.57;;
7795;SDS011;3942;51.518;6.912;2023-02-03T21:09:01;32.95;;;5.45;;
7795;SDS011;3942;51.518;6.912;2023-02-03T21:14:17;28.00;;;6.55;;
7795;SDS011;3942;51.518;6.912;2023-02-03T21:19:23;18.43;;;4.67;;
7795;SDS011;3942;51.518;6.912;2023-02-03T21:24:27;17.90;;;5.10;;
7795;SDS011;3942;51.518;6.912;2023-02-03T21:29:34;22.85;;;4.90;;
7795;SDS011;3942;51.518;6.912;2023-02-03T21:34:36;25.35;;;5.18;;
7795;SDS011;3942;51.518;6.912;2023-02-03T21:39:39;26.38;;;6.07;;
7795;SDS011;3942;51.518;6.912;2023-02-03T21:44:43;18.63;;;4.68;;
7795;SDS011;3942;51.518;6.912;2023-02-03T21:49:45;38.38;;;8.93;;
7795;SDS011;3942;51.518;6.912;2023-02-03T21:54:47;39.15;;;6.43;;
7795;SDS011;3942;51.518;6.912;2023-02-03T21:59:50;18.20;;;5.18;;
7795;SDS011;3942;51.518;6.912;2023-02-03T22:04:52;23.65;;;6.55;;
7795;SDS011;3942;51.518;6.912;2023-02-03T22:09:55;24.35;;;6.45;;
7795;SDS011;3942;51.518;6.912;2023-02-03T22:14:58;18.45;;;4.75;;
7795;SDS011;3942;51.518;6.912;2023-02-03T22:20:00;24.33;;;5.57;;
7795;SDS011;3942;51.518;6.912;2023-02-03T22:25:03;24.63;;;4.57;;
7795;SDS011;3942;51.518;6.912;2023-02-03T22:30:07;16.70;;;4.85;;
7795;SDS011;3942;51.518;6.912;2023-02-03T22:35:11;25.08;;;5.68;;
7795;SDS011;3942;51.518;6.912;2023-02-03T22:40:13;28.08;;;4.75;;
7795;SDS011;3942;51.518;6.912;2023-02-03T22:45:16;30.48;;;6.22;;
7795;SDS011;3942;51.518;6.912;2023-02-03T22:50:19;23.02;;;5.50;;
7795;SDS011;3942;51.518;6.912;2023-02-03T22:55:21;24.42;;;5.97;;
7795;SDS011;3942;51.518;6.912;2023-02-03T23:00:25;22.48;;;4.40;;
7795;SDS011;3942;51.518;6.912;2023-02-03T23:05:27;28.90;;;5.97;;
7795;SDS011;3942;51.518;6.912;2023-02-03T23:10:30;26.40;;;4.93;;
7795;SDS011;3942;51.518;6.912;2023-02-03T23:15:33;22.90;;;5.90;;
7795;SDS011;3942;51.518;6.912;2023-02-03T23:20:36;23.00;;;4.88;;
7795;SDS011;3942;51.518;6.912;2023-02-03T23:25:38;37.60;;;6.88;;
7795;SDS011;3942;51.518;6.912;2023-02-03T23:30:42;39.83;;;7.57;;
7795;SDS011;3942;51.518;6.912;2023-02-03T23:35:44;27.08;;;5.05;;
7795;SDS011;3942;51.518;6.912;2023-02-03T23:40:45;23.25;;;5.43;;
7795;SDS011;3942;51.518;6.912;2023-02-03T23:45:49;26.02;;;5.32;;
7795;SDS011;3942;51.518;6.912;2023-02-03T23:50:51;23.27;;;5.32;;
7795;SDS011;3942;51.518;6.912;2023-02-03T23:55:53;35.35;;;5.28;;
